createdAt,value
2023-03-14T00:00:01.163Z,58.43
2023-03-14T00:02:28.317Z,58.51
2023-03-14T00:04:55.308Z,58.50
2023-03-14T00:07:21.837Z,58.63
2023-03-14T00:09:48.311Z,59.05
2023-03-14T00:12:15.487Z,59.06
2023-03-14T00:14:43.567Z,59.22
2023-03-14T00:17:10.169Z,59.04
2023-03-14T00:19:36.601Z,59.01
2023-03-14T00:22:03.147Z,59.12
2023-03-14T00:24:29.660Z,59.28
2023-03-14T00:26:56.116Z,59.61
2023-03-14T00:29:23.369Z,60.41
2023-03-14T00:31:49.809Z,60.44
2023-03-14T00:34:16.288Z,60.96
2023-03-14T00:36:42.841Z,60.68
2023-03-14T00:39:09.470Z,61.34
2023-03-14T00:41:36.133Z,61.33
2023-03-14T00:44:03.080Z,61.47
2023-03-14T00:46:29.652Z,61.54
2023-03-14T00:48:56.337Z,62.34
2023-03-14T00:51:23.554Z,61.93
2023-03-14T00:53:50.213Z,61.91
2023-03-14T00:56:16.732Z,62.26
2023-03-14T00:58:43.517Z,61.92
2023-03-14T01:01:15.701Z,62.67
2023-03-14T01:03:42.514Z,62.79
2023-03-14T01:06:16.890Z,62.79
2023-03-14T01:08:43.661Z,63.17
2023-03-14T01:11:11.608Z,63.58
2023-03-14T01:13:38.180Z,63.38
2023-03-14T01:16:06.207Z,63.17
2023-03-14T01:18:33.496Z,63.42
2023-03-14T01:21:00.032Z,63.13
2023-03-14T01:23:26.684Z,64.01
2023-03-14T01:25:53.320Z,63.94
2023-03-14T01:28:20.054Z,63.93
2023-03-14T01:30:46.764Z,63.93
2023-03-14T01:33:15.423Z,63.82
2023-03-14T01:35:44.938Z,63.75
2023-03-14T01:38:11.710Z,63.86
2023-03-14T01:40:45.407Z,64.33
2023-03-14T01:43:19.465Z,64.38
2023-03-14T01:46:04.890Z,64.81
2023-03-14T01:48:55.392Z,65.06
2023-03-14T01:51:42.197Z,65.16
2023-03-14T01:54:21.197Z,65.01
2023-03-14T01:56:51.270Z,64.92
2023-03-14T01:59:17.938Z,64.46
2023-03-14T02:01:46.481Z,63.66
2023-03-14T02:04:13.824Z,63.89
2023-03-14T02:07:01.608Z,63.87
2023-03-14T02:09:38.113Z,63.28
2023-03-14T02:12:05.129Z,63.40
2023-03-14T02:14:48.922Z,63.31
2023-03-14T02:17:25.899Z,63.19
2023-03-14T02:20:14.802Z,63.18
2023-03-14T02:22:45.196Z,63.86
2023-03-14T02:25:17.632Z,63.57
2023-03-14T02:27:45.003Z,64.05
2023-03-14T02:30:15.894Z,64.46
2023-03-14T02:32:48.677Z,64.20
2023-03-14T02:35:17.278Z,64.63
2023-03-14T02:37:47.229Z,64.43
2023-03-14T02:40:13.929Z,64.45
2023-03-14T02:42:41.946Z,64.26
2023-03-14T02:45:08.926Z,64.56
2023-03-14T02:47:43.575Z,64.14
2023-03-14T02:50:13.592Z,64.38
2023-03-14T02:52:40.107Z,64.38
2023-03-14T02:55:07.831Z,64.67
2023-03-14T02:57:35.824Z,64.91
2023-03-14T03:00:07.144Z,65.33
2023-03-14T03:02:36.446Z,65.26
2023-03-14T03:05:03.036Z,65.45
2023-03-14T03:07:29.758Z,65.48
2023-03-14T03:09:57.332Z,65.80
2023-03-14T03:12:23.836Z,65.61
2023-03-14T03:14:50.317Z,65.71
2023-03-14T03:17:17.339Z,66.02
2023-03-14T03:19:44.602Z,66.24
2023-03-14T03:22:14.016Z,66.83
2023-03-14T03:24:41.274Z,66.72
2023-03-14T03:27:07.747Z,66.89
2023-03-14T03:29:34.403Z,67.12
2023-03-14T03:32:01.325Z,67.20
2023-03-14T03:34:28.410Z,67.83
2023-03-14T03:36:58.765Z,67.92
2023-03-14T03:39:27.232Z,68.08
2023-03-14T03:41:53.865Z,68.31
2023-03-14T03:44:20.608Z,68.67
2023-03-14T03:46:47.192Z,68.74
2023-03-14T03:49:13.745Z,68.55
2023-03-14T03:51:40.720Z,69.17
2023-03-14T03:54:07.287Z,69.18
2023-03-14T03:56:33.996Z,69.47
2023-03-14T03:59:00.546Z,69.70
2023-03-14T04:01:27.060Z,69.74
2023-03-14T04:03:56.911Z,69.97
2023-03-14T04:06:24.049Z,70.65
2023-03-14T04:08:54.623Z,70.99
2023-03-14T04:11:47.178Z,71.25
2023-03-14T04:14:16.511Z,72.00
2023-03-14T04:16:43.943Z,71.79
2023-03-14T04:19:14.723Z,72.35
2023-03-14T04:21:45.703Z,72.28
2023-03-14T04:24:12.762Z,72.64
2023-03-14T04:26:40.691Z,73.09
2023-03-14T04:29:10.970Z,73.88
2023-03-14T04:31:42.089Z,73.00
2023-03-14T04:34:09.111Z,73.05
2023-03-14T04:36:40.785Z,72.89
2023-03-14T04:39:13.294Z,72.81
2023-03-14T04:41:48.307Z,73.20
2023-03-14T04:44:14.904Z,73.57
2023-03-14T04:46:42.159Z,73.85
2023-03-14T04:49:09.020Z,73.98
2023-03-14T04:51:35.989Z,74.20
2023-03-14T04:54:02.591Z,72.59
2023-03-14T04:56:29.606Z,71.55
2023-03-14T04:58:56.552Z,70.11
2023-03-14T05:01:23.603Z,70.04
2023-03-14T05:04:05.569Z,69.31
2023-03-14T05:07:01.283Z,69.63
2023-03-14T05:09:46.148Z,69.45
2023-03-14T05:12:28.778Z,69.84
2023-03-14T05:15:02.104Z,69.40
2023-03-14T05:17:50.138Z,69.64
2023-03-14T05:20:44.299Z,69.29
2023-03-14T05:23:39.913Z,68.79
2023-03-14T05:26:30.244Z,69.28
2023-03-14T05:29:15.011Z,69.62
2023-03-14T05:32:04.272Z,70.69
2023-03-14T05:34:40.571Z,70.41
2023-03-14T05:37:33.234Z,70.94
2023-03-14T05:40:17.727Z,72.09
2023-03-14T05:43:10.282Z,72.19
2023-03-14T05:45:55.275Z,72.86
2023-03-14T05:48:41.980Z,72.85
2023-03-14T05:51:28.205Z,73.46
2023-03-14T05:54:04.588Z,73.41
2023-03-14T05:56:41.275Z,73.81
2023-03-14T05:59:28.486Z,73.59
2023-03-14T06:02:13.612Z,73.64
2023-03-14T06:04:53.470Z,73.62
2023-03-14T06:07:20.188Z,74.07
2023-03-14T06:09:46.827Z,74.16
2023-03-14T06:12:16.719Z,74.33
2023-03-14T06:14:45.412Z,74.37
2023-03-14T06:17:12.391Z,74.40
2023-03-14T06:19:47.859Z,74.08
2023-03-14T06:22:14.568Z,74.47
2023-03-14T06:24:41.520Z,73.95
2023-03-14T06:27:08.116Z,73.12
2023-03-14T06:29:34.919Z,74.52
2023-03-14T06:32:02.806Z,73.63
2023-03-14T06:34:29.446Z,72.83
2023-03-14T06:36:56.012Z,71.91
2023-03-14T06:39:22.512Z,70.81
2023-03-14T06:41:58.699Z,69.60
2023-03-14T06:44:25.491Z,69.69
2023-03-14T06:46:52.079Z,69.18
2023-03-14T06:49:19.057Z,68.02
2023-03-14T06:51:46.013Z,66.89
2023-03-14T06:54:13.006Z,66.65
2023-03-14T06:56:39.510Z,66.13
2023-03-14T06:59:06.189Z,65.20
2023-03-14T07:01:36.332Z,64.05
2023-03-14T07:04:08.136Z,62.01
2023-03-14T07:06:36.661Z,59.61
2023-03-14T07:09:05.100Z,58.83
2023-03-14T07:11:33.325Z,57.94
2023-03-14T07:14:00.150Z,56.91
2023-03-14T07:16:29.627Z,57.04
2023-03-14T07:18:56.206Z,56.81
2023-03-14T07:21:22.710Z,59.21
2023-03-14T07:23:49.211Z,59.98
2023-03-14T07:26:16.918Z,59.79
2023-03-14T07:28:48.826Z,58.54
2023-03-14T07:31:18.645Z,57.48
2023-03-14T07:33:45.220Z,57.66
2023-03-14T07:36:12.105Z,57.39
2023-03-14T07:38:41.967Z,56.25
2023-03-14T07:41:27.350Z,56.29
2023-03-14T07:44:12.619Z,54.95
2023-03-14T07:46:39.239Z,54.15
2023-03-14T07:49:05.875Z,54.00
2023-03-14T07:51:32.322Z,54.47
2023-03-14T07:53:59.051Z,54.41
2023-03-14T07:56:25.565Z,54.35
2023-03-14T07:58:52.085Z,54.95
2023-03-14T08:01:18.593Z,55.56
2023-03-14T08:03:45.183Z,55.25
2023-03-14T08:06:11.634Z,55.11
2023-03-14T08:08:38.328Z,55.62
2023-03-14T08:11:05.549Z,55.53
2023-03-14T08:13:32.216Z,54.50
2023-03-14T08:15:58.777Z,55.08
2023-03-14T08:18:25.330Z,54.57
2023-03-14T08:20:51.789Z,55.19
2023-03-14T08:23:18.348Z,55.22
2023-03-14T08:25:44.872Z,55.72
2023-03-14T08:28:11.496Z,55.53
2023-03-14T08:30:38.029Z,55.74
2023-03-14T08:33:04.707Z,54.94
2023-03-14T08:35:31.303Z,55.69
2023-03-14T08:37:58.005Z,55.89
2023-03-14T08:40:24.597Z,55.53
2023-03-14T08:42:51.123Z,55.40
2023-03-14T08:45:17.920Z,55.11
2023-03-14T08:47:45.329Z,54.29
2023-03-14T08:50:15.909Z,53.98
2023-03-14T08:52:42.843Z,55.03
2023-03-14T08:55:10.311Z,55.08
2023-03-14T08:57:37.430Z,54.82
2023-03-14T09:00:06.907Z,54.68
2023-03-14T09:02:33.365Z,55.03
2023-03-14T09:04:59.871Z,55.46
2023-03-14T09:07:26.328Z,55.69
2023-03-14T09:09:52.793Z,55.50
2023-03-14T09:12:19.285Z,56.21
2023-03-14T09:14:45.812Z,56.53
2023-03-14T09:17:12.337Z,56.64
2023-03-14T09:19:38.819Z,56.43
2023-03-14T09:22:05.370Z,56.81
2023-03-14T09:24:31.973Z,57.38
2023-03-14T09:26:58.499Z,57.64
2023-03-14T09:29:25.541Z,57.32
2023-03-14T09:31:52.273Z,57.88
2023-03-14T09:34:18.812Z,57.64
2023-03-14T09:36:45.390Z,57.93
2023-03-14T09:39:12.487Z,57.80
2023-03-14T09:41:41.675Z,57.59
2023-03-14T09:44:20.678Z,57.48
2023-03-14T09:46:50.864Z,57.89
2023-03-14T09:49:17.299Z,58.01
2023-03-14T09:51:45.222Z,57.86
2023-03-14T09:54:21.394Z,58.24
2023-03-14T09:56:48.080Z,57.94
2023-03-14T09:59:14.920Z,57.93
2023-03-14T10:01:41.814Z,57.87
2023-03-14T10:04:14.577Z,57.87
2023-03-14T10:06:41.238Z,58.26
2023-03-14T10:09:09.572Z,58.53
2023-03-14T10:11:36.092Z,59.03
2023-03-14T10:14:03.508Z,58.91
2023-03-14T10:16:31.304Z,58.65
2023-03-14T10:19:08.608Z,58.25
2023-03-14T10:21:42.351Z,57.88
2023-03-14T10:24:19.805Z,57.99
2023-03-14T10:26:48.904Z,57.27
2023-03-14T10:29:15.452Z,57.02
2023-03-14T10:32:11.052Z,56.43
2023-03-14T10:34:38.624Z,56.96
2023-03-14T10:37:31.648Z,56.81
2023-03-14T10:40:08.321Z,56.32
2023-03-14T10:42:40.061Z,56.83
2023-03-14T10:45:11.144Z,56.85
2023-03-14T10:47:48.889Z,57.54
2023-03-14T10:50:25.658Z,58.34
2023-03-14T10:53:05.500Z,58.37
2023-03-14T10:55:42.600Z,58.94
2023-03-14T10:58:22.713Z,58.21
2023-03-14T11:00:52.455Z,58.41
2023-03-14T11:03:21.551Z,58.04
2023-03-14T11:05:52.460Z,57.95
2023-03-14T11:08:26.094Z,58.48
2023-03-14T11:10:55.758Z,59.39
2023-03-14T11:13:36.879Z,59.65
2023-03-14T11:16:21.549Z,59.75
2023-03-14T11:19:23.563Z,59.99
2023-03-14T11:21:57.152Z,60.04
2023-03-14T11:24:26.598Z,59.74
2023-03-14T11:27:06.257Z,59.86
2023-03-14T11:30:01.912Z,59.54
2023-03-14T11:32:43.039Z,59.32
2023-03-14T11:35:32.744Z,58.96
2023-03-14T11:38:06.318Z,59.00
2023-03-14T11:40:33.779Z,58.64
2023-03-14T11:43:03.844Z,58.98
2023-03-14T11:45:37.856Z,59.52
2023-03-14T11:48:22.698Z,59.78
2023-03-14T11:50:51.709Z,60.28
2023-03-14T11:53:41.645Z,60.54
2023-03-14T11:56:19.171Z,59.71
2023-03-14T11:58:52.576Z,59.63
2023-03-14T12:01:22.717Z,59.67
2023-03-14T12:04:06.727Z,59.54
2023-03-14T12:06:38.876Z,59.23
2023-03-14T12:09:06.879Z,59.24
2023-03-14T12:11:51.744Z,58.63
2023-03-14T12:14:20.133Z,58.73
2023-03-14T12:16:48.082Z,59.33
2023-03-14T12:19:16.741Z,59.54
2023-03-14T12:21:51.185Z,60.00
2023-03-14T12:24:23.910Z,59.94
2023-03-14T12:26:53.514Z,60.06
2023-03-14T12:29:20.045Z,60.55
2023-03-14T12:31:48.021Z,60.95
2023-03-14T12:34:14.579Z,60.04
2023-03-14T12:36:50.648Z,60.33
2023-03-14T12:39:21.440Z,59.71
2023-03-14T12:41:52.309Z,59.09
2023-03-14T12:44:30.946Z,58.61
2023-03-14T12:47:01.094Z,58.82
2023-03-14T12:49:31.952Z,59.17
2023-03-14T12:52:02.414Z,59.14
2023-03-14T12:54:49.530Z,59.12
2023-03-14T12:57:21.721Z,59.07
2023-03-14T12:59:58.656Z,58.80
2023-03-14T13:02:25.096Z,58.96
2023-03-14T13:04:53.600Z,59.67
2023-03-14T13:07:32.186Z,59.58
2023-03-14T13:12:57.445Z,60.18
2023-03-14T13:15:29.670Z,60.41
2023-03-14T13:17:59.977Z,60.29
2023-03-14T13:20:31.870Z,60.16
2023-03-14T13:22:58.425Z,60.13
2023-03-14T13:25:25.009Z,60.18
2023-03-14T13:27:56.473Z,60.50
2023-03-14T13:30:25.973Z,60.43
2023-03-14T13:32:53.561Z,60.31
2023-03-14T13:35:22.350Z,60.99
2023-03-14T13:37:57.894Z,61.45
2023-03-14T13:40:35.407Z,62.15
2023-03-14T13:43:17.001Z,62.83
2023-03-14T13:45:51.321Z,64.72
2023-03-14T13:48:18.847Z,66.93
2023-03-14T13:50:46.797Z,68.21
2023-03-14T13:53:13.242Z,69.50
2023-03-14T13:55:39.752Z,69.74
2023-03-14T13:58:06.338Z,70.51
2023-03-14T14:00:32.966Z,72.68
2023-03-14T14:03:00.912Z,72.82
2023-03-14T14:05:28.922Z,74.39
2023-03-14T14:07:55.682Z,74.94
2023-03-14T14:10:22.349Z,76.26
2023-03-14T14:12:56.557Z,77.06
2023-03-14T14:15:30.641Z,77.29
2023-03-14T14:18:00.227Z,77.66
2023-03-14T14:20:33.493Z,77.75
2023-03-14T14:23:00.989Z,78.38
2023-03-14T14:25:27.478Z,79.11
2023-03-14T14:27:53.977Z,80.64
2023-03-14T14:30:20.424Z,80.97
2023-03-14T14:32:48.059Z,81.32
2023-03-14T14:35:25.276Z,81.38
2023-03-14T14:37:51.803Z,81.28
2023-03-14T14:40:18.289Z,80.70
2023-03-14T14:42:44.966Z,81.57
2023-03-14T14:45:15.343Z,83.31
2023-03-14T14:47:54.066Z,83.91
2023-03-14T14:50:27.816Z,85.44
2023-03-14T14:52:57.181Z,85.49
2023-03-14T14:55:23.996Z,85.39
2023-03-14T14:57:52.103Z,84.24
2023-03-14T15:00:21.374Z,85.56
2023-03-14T15:02:48.994Z,86.31
2023-03-14T15:05:19.870Z,86.47
2023-03-14T15:07:46.488Z,87.83
2023-03-14T15:10:14.153Z,88.65
2023-03-14T15:12:41.111Z,87.33
2023-03-14T15:15:08.081Z,85.86
2023-03-14T15:17:34.633Z,83.83
2023-03-14T15:20:01.160Z,83.53
2023-03-14T15:22:27.676Z,84.22
2023-03-14T15:24:54.296Z,85.10
2023-03-14T15:27:20.848Z,87.26
2023-03-14T15:29:47.345Z,87.50
2023-03-14T15:32:15.268Z,87.43
2023-03-14T15:34:41.930Z,88.65
2023-03-14T15:37:16.740Z,88.81
2023-03-14T15:39:43.793Z,89.99
2023-03-14T15:42:10.467Z,90.81
2023-03-14T15:44:37.082Z,90.89
2023-03-14T15:47:03.593Z,90.90
2023-03-14T15:49:30.152Z,91.38
2023-03-14T15:51:57.955Z,91.42
2023-03-14T15:54:24.926Z,91.88
2023-03-14T15:56:53.053Z,93.55
2023-03-14T15:59:19.879Z,93.47
2023-03-14T16:01:48.971Z,93.07
2023-03-14T16:04:15.602Z,92.82
2023-03-14T16:06:42.131Z,92.38
2023-03-14T16:09:08.570Z,92.35
2023-03-14T16:11:35.102Z,91.56
2023-03-14T16:14:01.548Z,91.29
2023-03-14T16:16:28.140Z,91.16
2023-03-14T16:18:54.664Z,90.48
2023-03-14T16:21:22.030Z,90.58
2023-03-14T16:23:48.496Z,90.66
2023-03-14T16:26:19.143Z,90.76
2023-03-14T16:28:46.327Z,91.29
2023-03-14T16:31:14.035Z,92.17
2023-03-14T16:33:40.532Z,92.42
2023-03-14T16:36:12.196Z,93.14
2023-03-14T16:38:40.459Z,93.62
2023-03-14T16:41:06.886Z,93.65
2023-03-14T16:43:39.188Z,94.34
2023-03-14T16:46:06.627Z,95.23
2023-03-14T16:48:33.255Z,95.39
2023-03-14T16:50:59.948Z,96.44
2023-03-14T16:53:29.159Z,97.29
2023-03-14T16:55:56.560Z,98.63
2023-03-14T16:58:23.069Z,98.87
2023-03-14T17:00:49.627Z,99.47
2023-03-14T17:03:17.166Z,99.75
2023-03-14T17:05:51.526Z,100.00
2023-03-14T17:08:19.028Z,100.00
2023-03-14T17:10:45.863Z,100.00
2023-03-14T17:13:12.523Z,100.00
2023-03-14T17:15:39.112Z,100.00
2023-03-14T17:18:06.038Z,100.00
2023-03-14T17:20:32.627Z,100.00
2023-03-14T17:22:59.070Z,100.00
2023-03-14T17:25:25.546Z,100.00
2023-03-14T17:27:52.088Z,100.00
2023-03-14T17:30:18.624Z,100.00
2023-03-14T17:32:45.152Z,100.00
2023-03-14T17:35:11.628Z,100.00
2023-03-14T17:37:38.170Z,100.00
2023-03-14T17:40:05.218Z,100.00
2023-03-14T17:42:32.002Z,100.00
2023-03-14T17:44:58.823Z,100.00
2023-03-14T17:47:25.290Z,100.00
2023-03-14T17:49:51.802Z,100.00
2023-03-14T17:52:18.302Z,100.00
2023-03-14T17:54:44.828Z,100.00
2023-03-14T17:57:11.393Z,100.00
2023-03-14T17:59:38.017Z,100.00
2023-03-14T18:02:04.910Z,100.00
2023-03-14T18:04:31.485Z,100.00
2023-03-14T18:06:58.119Z,100.00
2023-03-14T18:09:24.573Z,100.00
2023-03-14T18:11:58.852Z,100.00
2023-03-14T18:14:28.567Z,100.00
2023-03-14T18:16:55.453Z,100.00
2023-03-14T18:19:21.932Z,100.00
2023-03-14T18:21:48.483Z,100.00
2023-03-14T18:24:14.970Z,100.00
2023-03-14T18:26:41.600Z,100.00
2023-03-14T18:29:08.204Z,100.00
2023-03-14T18:31:35.002Z,100.00
2023-03-14T18:34:01.990Z,100.00
2023-03-14T18:36:28.522Z,100.00
2023-03-14T18:38:56.781Z,100.00
2023-03-14T18:41:24.162Z,100.00
2023-03-14T18:43:52.388Z,100.00
2023-03-14T18:46:20.684Z,100.00
2023-03-14T18:48:47.426Z,100.00
2023-03-14T18:51:15.417Z,100.00
2023-03-14T18:53:42.462Z,100.00
2023-03-14T18:56:12.752Z,100.00
2023-03-14T18:58:40.851Z,100.00
2023-03-14T19:01:08.017Z,100.00
2023-03-14T19:03:35.205Z,100.00
2023-03-14T19:06:04.241Z,100.00
2023-03-14T19:08:30.787Z,100.00
2023-03-14T19:11:01.010Z,100.00
2023-03-14T19:13:27.708Z,100.00
2023-03-14T19:15:54.203Z,100.00
2023-03-14T19:18:20.740Z,100.00
2023-03-14T19:20:55.768Z,99.54
2023-03-14T19:23:24.575Z,98.66
2023-03-14T19:25:54.347Z,97.77
2023-03-14T19:28:21.009Z,97.35
2023-03-14T19:30:48.001Z,93.66
2023-03-14T19:33:14.837Z,90.54
2023-03-14T19:35:41.400Z,86.62
2023-03-14T19:38:08.347Z,84.69
2023-03-14T19:40:38.531Z,83.08
2023-03-14T19:43:05.165Z,82.42
2023-03-14T19:45:36.845Z,82.81
2023-03-14T19:48:05.339Z,80.66
2023-03-14T19:50:32.289Z,79.85
2023-03-14T19:52:58.760Z,80.06
2023-03-14T19:55:25.739Z,79.97
2023-03-14T19:57:52.627Z,80.09
2023-03-14T20:00:20.041Z,79.67
2023-03-14T20:02:46.766Z,79.24
2023-03-14T20:05:14.439Z,79.17
2023-03-14T20:07:41.295Z,79.04
2023-03-14T20:10:08.890Z,78.71
2023-03-14T20:12:35.702Z,77.85
2023-03-14T20:15:02.910Z,77.28
2023-03-14T20:17:31.179Z,76.17
2023-03-14T20:19:58.359Z,74.52
2023-03-14T20:22:24.876Z,74.07
2023-03-14T20:24:52.610Z,74.15
2023-03-14T20:27:19.160Z,73.02
2023-03-14T20:29:45.791Z,71.88
2023-03-14T20:32:12.310Z,71.70
2023-03-14T20:34:40.064Z,71.64
2023-03-14T20:37:08.459Z,71.40
2023-03-14T20:39:35.992Z,70.68
2023-03-14T20:42:02.554Z,71.04
2023-03-14T20:44:29.250Z,70.53
2023-03-14T20:46:57.643Z,70.70
2023-03-14T20:49:24.229Z,70.61
2023-03-14T20:51:50.686Z,70.34
2023-03-14T20:54:17.266Z,70.08
2023-03-14T20:56:46.316Z,70.15
2023-03-14T20:59:13.382Z,69.13
2023-03-14T21:01:39.987Z,68.74
2023-03-14T21:04:06.762Z,68.37
2023-03-14T21:06:33.646Z,68.28
2023-03-14T21:09:05.428Z,68.57
2023-03-14T21:11:32.482Z,68.13
2023-03-14T21:13:59.113Z,68.19
2023-03-14T21:16:25.772Z,68.14
2023-03-14T21:18:52.448Z,68.10
2023-03-14T21:21:19.032Z,67.46
2023-03-14T21:23:45.647Z,66.57
2023-03-14T21:26:14.997Z,65.92
2023-03-14T21:28:42.752Z,65.36
2023-03-14T21:31:11.690Z,64.21
2023-03-14T21:33:38.797Z,62.11
2023-03-14T21:36:06.221Z,61.08
2023-03-14T21:38:32.721Z,59.04
2023-03-14T21:40:59.946Z,58.28
2023-03-14T21:43:26.916Z,57.62
2023-03-14T21:45:53.955Z,56.92
2023-03-14T21:48:22.149Z,57.41
2023-03-14T21:50:48.955Z,57.42
2023-03-14T21:53:15.650Z,57.96
2023-03-14T21:55:46.480Z,58.84
2023-03-14T21:58:14.638Z,58.92
2023-03-14T22:00:42.382Z,58.91
2023-03-14T22:03:13.153Z,57.83
2023-03-14T22:05:46.799Z,57.23
2023-03-14T22:08:14.757Z,57.88
2023-03-14T22:10:45.038Z,59.12
2023-03-14T22:13:11.562Z,59.94
2023-03-14T22:15:38.777Z,60.59
2023-03-14T22:18:05.619Z,60.25
2023-03-14T22:20:32.219Z,60.17
2023-03-14T22:22:58.730Z,59.69
2023-03-14T22:25:25.266Z,59.77
2023-03-14T22:27:51.745Z,59.39
2023-03-14T22:30:18.255Z,59.23
2023-03-14T22:32:44.780Z,58.99
2023-03-14T22:35:11.303Z,59.07
2023-03-14T22:37:39.753Z,59.08
2023-03-14T22:40:08.139Z,59.04
2023-03-14T22:42:34.639Z,59.14
2023-03-14T22:45:01.213Z,59.15
2023-03-14T22:47:27.706Z,57.89
2023-03-14T22:49:54.167Z,58.01
2023-03-14T22:52:20.721Z,57.80
2023-03-14T22:54:47.183Z,57.49
2023-03-14T22:57:13.759Z,57.24
2023-03-14T22:59:40.273Z,57.46
2023-03-14T23:02:06.776Z,56.67
2023-03-14T23:04:33.347Z,56.82
2023-03-14T23:06:59.837Z,56.32
2023-03-14T23:09:26.314Z,56.30
2023-03-14T23:11:53.593Z,55.28
2023-03-14T23:14:23.002Z,55.72
2023-03-14T23:16:50.351Z,55.97
2023-03-14T23:19:17.161Z,55.59
2023-03-14T23:21:43.826Z,55.53
2023-03-14T23:24:11.145Z,54.42
2023-03-14T23:26:37.649Z,54.76
2023-03-14T23:29:07.426Z,54.39
2023-03-14T23:31:34.303Z,54.32
2023-03-14T23:34:00.995Z,54.51
2023-03-14T23:36:27.575Z,54.29
2023-03-14T23:38:54.414Z,54.63
2023-03-14T23:41:21.044Z,53.56
2023-03-14T23:43:48.425Z,53.86
2023-03-14T23:46:16.321Z,54.13
2023-03-14T23:48:46.671Z,54.00
2023-03-14T23:51:13.900Z,54.13
2023-03-14T23:53:40.696Z,53.87
2023-03-14T23:56:07.394Z,53.28
2023-03-14T23:58:36.859Z,53.56
